Stockett, MT (59480)

8:20 AM MDT on August 04, 2015 (GMT -0600)
6S Great Falls | | Change Station
CLOSE
Current Station
Personal Weather Station
Location: Great Falls, MT
Elevation: 3510 ft
Nearby Weather Stations

Elev 3510 ft 47.43 °N, 111.32 °W | Updated 31 seconds ago

Overcast
Overcast
72.0 °F
Feels Like 77 °F
N
0.0
Wind Variable Wind from SW
Gusts 2.9 mph

Today
High -- | Low -- °F
--% Chance of Precip.
Yesterday
High -- | Low -- °F
Precip. -- in
6:06 AM 8:53 PM
Waning Gibbous, 77% visible
Pressure 29.92 in
Visibility 10.0 miles
Clouds Mostly Cloudy 8500 ft
Heat Index 77 °F
Dew Point 51 °F
Humidity 47%
Rainfall 0.00 in
Snow Depth Not available.
UV 1 out of 12
Pollen 7.10 out of 12
Air Quality Not available.
Flu Activity Not available.
SPECI KGFA 041406Z AUTO 03001KT 10SM BKN085 23/11 A2992 RMK AO2 SHRAE05 TSNO $

More Conditions Fewer Conditions

Pressure 29.92 in
Visibility 10.0 miles
Clouds Mostly Cloudy 8500 ft
Heat Index 77 °F
Dew Point 51 °F
Humidity 47%
Rainfall 0.00 in
Snow Depth Not available.
UV 1 out of 12
Pollen 7.10 out of 12
Air Quality Not available.
Flu Activity Not available.
SPECI KGFA 041406Z AUTO 03001KT 10SM BKN085 23/11 A2992 RMK AO2 SHRAE05 TSNO $

More Conditions Fewer Conditions

10-Day Weather Forecast

×

Almanac

Astronomy

Aug. 04, 2015 Rise Set
Actual Time
Civil Twilight
Nautical Twilight
Astronomical Twilight
Moon
Length of Visible Light
Length of Day
Tomorrow will be .
, % of the Moon is Illuminated

Today's Extremes

State Highs State Lows

Community

WunderPhotos

Upload Photos

1,843,917 photos uploaded!

WunderBlogs® & News

Nearby

Air Quality

  Air Quality AQ Index Pollutant
Not available.

Snow Depth

Station Depth Elevation

Earthquake Activity

City Distance Mag. Time & Date
Minimum magnitude displayed is 2.5.

Coastal Water Temperatures

Place Temperature

Stations

Nearby Weather Stations

Station Location Temp. Windchill Dew Point Humidity Wind Precip. Elev Updated Type